Latest Weather Observations for Snowtown

IDS60801

Issued at 8:05 pm CDT Saturday 1 November 2014 (issued every 30 minutes, with the page automatically refreshed every 10 minutes)

About weather observations | Map of weather stations | Latest weather observations for SA | Other Formats
Station Details ID: 021133 Name: RAYVILLE PARK Lat: -33.77 Lon: 138.22 Height: 109.1 m
Data from the previous 72 hours. | See also: Recent months at Snowtown
Date/Time
CDT
Temp
°C
App
Temp
°C
Dew
Point
Rel
Hum
%
Delta-T
°C
Wind Press
QNH
hPa
Press
MSL
hPa
Rain
since 9 am
mm
Dir
 
Spd
km/h
Gust
km/h
Spd
kts
Gust
kts
01/08:00pm 13.6 9.0 3.7 51 4.5 S 17 22 9 12 1021.5 1021.3 0.0
01/07:30pm 14.2 8.6 3.4 48 4.9 S 22 32 12 17 1020.9 1020.7 0.0
01/07:00pm 15.2 8.7 2.7 43 5.6 S 26 35 14 19 1020.4 1020.2 0.0
01/06:30pm 16.4 9.1 2.4 39 6.3 S 30 41 16 22 1019.8 1019.6 0.0
01/06:00pm 17.6 11.1 2.8 37 6.8 S 26 39 14 21 1019.3 1019.0 0.0
01/05:30pm 17.9 10.3 2.6 36 7.0 S 32 44 17 24 1018.9 1018.6 0.0
01/05:00pm 18.7 11.4 2.5 34 7.5 S 30 48 16 26 1018.5 1018.2 0.0
01/04:56pm 18.9 12.0 2.7 34 7.5 S 28 46 15 25 1018.4 1018.1 0.0
01/04:30pm 18.7 11.7 2.1 33 7.6 S 28 43 15 23 1018.2 1017.9 0.0
01/04:01pm 20.3 13.0 2.6 31 8.3 S 30 48 16 26 1017.7 1017.4 0.0
01/04:00pm 19.8 12.1 2.2 31 8.2 S 32 48 17 26 1017.7 1017.4 0.0
01/03:30pm 20.2 12.8 2.1 30 8.4 S 30 41 16 22 1017.5 1017.2 0.0
01/03:00pm 20.7 13.3 2.0 29 8.7 S 30 44 16 24 1017.3 1017.0 0.0
01/02:30pm 20.1 12.7 3.8 34 7.8 S 32 43 17 23 1017.4 1017.1 0.0
01/02:00pm 20.1 12.6 1.0 28 8.7 SSW 30 43 16 23 1017.3 1017.0 0.0
01/01:47pm 20.2 13.3 2.5 31 8.3 SW 28 46 15 25 1017.3 1017.0 0.0
01/01:30pm 19.8 12.4 1.7 30 8.3 SW 30 43 16 23 1017.3 1017.0 0.0
01/01:00pm 19.4 11.7 2.3 32 7.9 SSW 32 52 17 28 1017.2 1016.9 0.0
01/12:35pm 19.4 11.5 2.3 32 7.9 SW 33 54 18 29 1017.2 1016.9 0.0
01/12:30pm 18.8 10.4 1.8 32 7.7 SSW 35 48 19 26 1017.3 1017.0 0.0
01/12:10pm 19.0 11.8 2.8 34 7.5 SSW 30 48 16 26 1017.3 1017.0 0.0
01/12:00pm 18.8 11.2 2.6 34 7.5 SW 32 44 17 24 1017.3 1017.0 0.0
01/11:30am 18.5 10.7 2.8 35 7.3 SW 33 56 18 30 1017.2 1016.9 0.0
01/11:04am 16.5 9.3 4.9 46 5.5 SSW 32 50 17 27 1017.2 1016.9 0.0
01/11:00am 17.3 10.6 5.6 46 5.7 SW 30 44 16 24 1017.2 1016.9 0.0
01/10:30am 16.5 10.5 6.9 53 4.8 SSW 28 43 15 23 1016.9 1016.6 0.0
01/10:00am 16.2 10.2 7.2 55 4.5 SSW 28 41 15 22 1016.4 1016.3 0.0
01/09:30am 15.6 10.5 7.6 59 4.0 SW 24 35 13 19 1016.1 1016.0 0.0
01/09:00am 14.2 8.3 7.3 63 3.4 SSW 28 43 15 23 1015.9 1015.8 -
01/08:30am 12.9 8.3 8.0 72 2.4 SSW 22 30 12 16 1015.5 1015.4 -
01/08:00am 12.9 9.0 8.8 76 2.1 SW 19 26 10 14 1014.9 1014.8 -
01/07:30am 11.3 9.0 8.9 85 1.2 SW 11 15 6 8 1014.5 1014.4 -
01/07:00am 11.3 8.3 9.2 87 1.1 SW 15 22 8 12 1013.9 1013.8 -
01/06:30am 12.0 8.5 10.1 88 1.0 SSW 19 24 10 13 1013.3 1013.1 -
01/06:00am 12.4 9.5 11.0 91 0.7 SSW 17 24 9 13 1012.3 1012.2 -
01/05:30am 12.6 9.5 11.5 93 0.6 SSW 19 28 10 15 1011.3 1011.2 -
01/05:00am 12.6 8.2 11.7 94 0.5 SW 26 35 14 19 1010.7 1010.6 -
01/04:30am 13.0 9.8 11.9 93 0.6 SW 20 28 11 15 1010.2 1010.1 -
01/04:00am 13.0 9.9 12.2 95 0.4 SW 20 30 11 16 1009.9 1009.8 -
01/03:47am 13.4 8.0 12.3 93 0.6 WSW 32 41 17 22 1009.8 1009.7 -
01/03:30am 13.7 12.9 12.8 94 0.5 SW 9 17 5 9 1009.5 1009.4 -
01/03:00am 13.7 11.7 12.8 94 0.5 SW 15 22 8 12 1009.4 1009.3 -
01/02:30am 13.8 11.5 12.9 94 0.5 SW 17 24 9 13 1009.0 1008.9 -
01/02:00am 13.7 - 12.9 95 0.4 - - - - - 1009.0 1008.9 -
01/01:30am 14.3 12.4 13.0 92 0.7 SW 15 19 8 10 1008.7 1008.6 0.6
01/01:00am 15.0 13.3 13.5 91 0.8 WSW 15 20 8 11 1008.5 1008.4 0.6
01/12:30am 15.5 13.6 13.0 85 1.4 WSW 15 20 8 11 1008.3 1008.2 0.4
01/12:00am 15.8 14.3 13.1 84 1.5 SW 13 17 7 9 1007.9 1007.8 0.2
 
Date/Time
CDT
Temp
°C
App
Temp
°C
Dew
Point
Rel
Hum
%
Delta-T
°C
Wind Press
QNH
hPa
Press
MSL
hPa
Rain
since 9 am
mm
Dir
 
Spd
km/h
Gust
km/h
Spd
kts
Gust
kts
31/11:30pm 15.7 14.9 13.0 84 1.5 SW 9 13 5 7 1007.8 1007.7 0.2
31/11:00pm 16.1 14.9 13.9 87 1.2 SW 13 17 7 9 1007.8 1007.7 0.2
31/10:30pm 17.6 15.7 12.9 74 2.6 SSW 15 24 8 13 1007.3 1007.2 0.0
31/10:00pm 17.7 15.8 11.7 68 3.3 SSW 13 17 7 9 1007.4 1007.3 0.0
31/09:30pm 17.5 14.8 11.8 69 3.1 S 17 24 9 13 1006.9 1006.8 0.0
31/09:00pm 18.2 15.8 11.5 65 3.7 SSW 15 22 8 12 1006.6 1006.5 0.0
31/08:30pm 18.5 15.4 11.6 64 3.8 SSW 19 30 10 16 1005.9 1005.7 0.0
31/08:00pm 20.0 14.9 10.7 55 5.1 SSW 28 41 15 22 1005.7 1005.5 0.0
31/07:36pm 22.9 15.2 5.3 32 8.9 SW 35 56 19 30 1004.4 1004.2 0.0
31/07:30pm 23.5 16.6 6.3 33 8.9 SW 32 44 17 24 1003.9 1003.7 0.0
31/07:19pm 24.3 18.4 7.4 34 8.9 SSW 28 48 15 26 1003.3 1003.1 0.0
31/07:00pm 25.1 20.4 7.7 33 9.3 S 22 35 12 19 1002.2 1002.1 0.0
31/06:31pm 26.5 19.5 7.0 29 10.3 SSW 33 54 18 29 1001.0 1000.9 0.0
31/06:30pm 26.8 20.0 6.8 28 10.6 SSW 32 48 17 26 1001.0 1000.9 0.0
31/06:01pm 29.1 20.5 4.6 21 12.6 SW 39 57 21 31 1000.8 1000.7 0.0
31/06:00pm 29.5 20.9 4.9 21 12.9 SW 39 54 21 29 1000.8 1000.7 0.0
31/05:30pm 31.1 21.2 1.4 15 14.8 WSW 43 57 23 31 1000.0 999.9 0.0
31/05:00pm 31.5 23.4 3.5 17 14.4 WSW 35 46 19 25 999.8 999.7 0.0
31/04:40pm 32.6 25.4 0.6 13 15.8 W 28 46 15 25 1000.2 1000.1 0.0
31/04:30pm 32.7 25.5 0.7 13 15.9 W 28 39 15 21 999.5 999.4 0.0
31/04:00pm 33.8 27.4 5.4 17 15.3 WNW 28 43 15 23 999.4 999.3 0.0
31/03:38pm 34.9 26.8 3.5 14 16.5 NNW 35 54 19 29 999.5 999.4 0.0
31/03:30pm 35.7 27.2 3.0 13 17.2 NNW 37 54 20 29 999.5 999.4 0.0
31/03:00pm 36.4 28.0 3.6 13 17.5 NW 37 57 20 31 1000.2 1000.1 0.0
31/02:38pm 36.5 27.3 3.7 13 17.4 NW 41 59 22 32 1000.7 1000.6 0.0
31/02:30pm 36.0 26.8 3.3 13 17.3 NW 41 56 22 30 1000.9 1000.8 0.0
31/02:08pm 35.1 26.7 3.6 14 16.6 NNW 37 56 20 30 1001.4 1001.3 0.0
31/02:00pm 35.7 26.0 4.1 14 16.8 NW 44 57 24 31 1001.6 1001.5 0.0
31/01:30pm 36.9 27.6 5.0 14 17.4 NNW 43 61 23 33 1001.9 1001.8 0.0
31/01:00pm 36.0 26.6 4.3 14 16.9 NNW 43 61 23 33 1002.3 1002.2 0.0
31/12:34pm 35.1 25.5 3.6 14 16.6 NNW 43 61 23 33 1002.8 1002.7 0.0
31/12:30pm 35.5 25.4 3.9 14 16.8 NNW 46 63 25 34 1002.9 1002.8 0.0
31/12:03pm 35.2 27.2 3.7 14 16.6 NNW 35 54 19 29 1003.3 1003.1 0.0
31/12:00pm 34.7 26.2 3.3 14 16.5 NNW 37 52 20 28 1003.4 1003.2 0.0
31/11:33am 34.3 25.8 3.0 14 16.2 NNW 37 59 20 32 1003.7 1003.5 0.0
31/11:30am 35.3 27.3 3.8 14 16.7 NNW 35 50 19 27 1003.6 1003.4 0.0
31/11:00am 33.9 25.1 1.6 13 16.3 NNW 37 52 20 28 1004.1 1003.9 0.0
31/10:30am 32.9 22.7 0.9 13 16.0 NNW 44 56 24 30 1004.4 1004.2 0.0
31/10:16am 32.8 24.9 -1.5 11 16.4 N 30 50 16 27 1004.5 1004.3 0.0
31/10:00am 31.2 23.3 -1.5 12 15.4 N 30 39 16 21 1004.7 1004.5 0.0
31/09:30am 28.1 19.8 -1.9 14 13.8 N 32 43 17 23 1005.1 1004.9 0.0
31/09:00am 27.4 21.3 0.2 17 12.9 NNE 22 35 12 19 1005.5 1005.3 0.0
31/08:30am 25.5 19.9 0.9 20 11.6 N 20 24 11 13 1005.8 1005.6 0.0
31/08:00am 22.2 17.1 0.7 24 9.9 N 17 24 9 13 1006.0 1005.9 0.0
31/07:30am 22.1 16.4 0.6 24 9.9 N 20 24 11 13 1006.1 1006.0 0.0
31/07:00am 18.0 14.5 1.1 32 7.5 NNW 9 19 5 10 1006.2 1006.1 0.0
31/06:30am 15.6 10.7 -0.2 34 6.7 N 15 19 8 10 1006.2 1006.1 0.0
31/06:00am 14.1 11.3 3.0 47 5.0 N 7 9 4 5 1006.5 1006.4 0.0
31/05:30am 13.4 10.6 3.2 50 4.6 N 7 9 4 5 1006.8 1006.7 0.0
31/05:00am 11.8 8.9 2.8 54 3.9 NNW 7 11 4 6 1007.1 1007.0 0.0
31/04:30am 11.0 8.8 3.5 60 3.3 NW 4 7 2 4 1007.5 1007.4 0.0
31/04:00am 10.4 9.3 5.0 69 2.5 CALM 0 0 0 0 1007.9 1007.8 0.0
31/03:30am 10.0 8.9 5.2 72 2.2 CALM 0 0 0 0 1008.2 1008.1 0.0
31/03:00am 10.6 8.3 4.9 68 2.6 NW 6 9 3 5 1008.6 1008.5 0.0
31/02:30am 9.2 5.8 4.0 70 2.3 NNW 11 13 6 7 1008.7 1008.6 0.0
31/02:00am 9.0 7.7 4.2 72 2.1 CALM 0 0 0 0 1008.9 1008.8 0.0
31/01:30am 10.1 7.8 4.9 70 2.4 N 6 7 3 4 1009.5 1009.4 0.0
31/01:00am 11.0 10.0 5.5 69 2.5 CALM 0 6 0 3 1010.0 1009.9 0.0
31/12:30am 12.0 9.8 6.3 68 2.7 WNW 7 9 4 5 1010.4 1010.3 0.0
31/12:00am 12.3 12.0 8.8 79 1.8 CALM 0 0 0 0 1010.7 1010.6 0.0
 
Date/Time
CDT
Temp
°C
App
Temp
°C
Dew
Point
Rel
Hum
%
Delta-T
°C
Wind Press
QNH
hPa
Press
MSL
hPa
Rain
since 9 am
mm
Dir
 
Spd
km/h
Gust
km/h
Spd
kts
Gust
kts
30/11:30pm 12.6 11.1 8.5 76 2.1 SW 6 9 3 5 1011.1 1011.0 0.0
30/11:00pm 12.4 10.8 8.1 75 2.1 SW 6 7 3 4 1011.4 1011.3 0.0
30/10:30pm 14.8 13.0 10.8 77 2.1 SW 11 15 6 8 1011.7 1011.6 0.0
30/10:00pm 14.7 13.0 11.3 80 1.8 SW 11 13 6 7 1012.2 1012.1 0.0
30/09:30pm 15.0 13.8 11.6 80 1.8 SW 9 13 5 7 1012.4 1012.3 0.0
30/09:00pm 16.0 15.0 11.0 72 2.7 SSW 7 11 4 6 1012.1 1012.0 0.0
30/08:30pm 17.4 15.7 12.3 72 2.8 S 13 19 7 10 1011.8 1011.7 0.0
30/08:00pm 18.4 14.9 10.3 59 4.4 SSW 19 26 10 14 1011.8 1011.7 0.0
30/07:30pm 19.8 16.2 8.5 48 5.9 SSW 17 24 9 13 1011.5 1011.4 0.0
30/07:00pm 21.4 17.2 9.9 48 6.2 SSW 22 28 12 15 1011.4 1011.3 0.0
30/06:30pm 23.5 19.6 10.9 45 7.0 SSW 22 32 12 17 1011.0 1010.9 0.0
30/06:29pm 23.6 19.6 10.6 44 7.2 SSW 22 32 12 17 1011.0 1010.9 0.0
30/06:00pm 28.6 25.5 7.2 26 11.5 SW 13 33 7 18 1010.9 1010.8 0.0
30/05:30pm 30.8 26.9 -4.3 10 15.7 WNW 7 17 4 9 1010.8 1010.7 0.0
30/05:00pm 31.0 27.2 -4.1 10 15.8 SW 7 13 4 7 1011.0 1010.9 0.0
30/04:30pm 31.2 26.4 -2.7 11 15.7 W 13 20 7 11 1011.4 1011.3 0.0
30/04:00pm 31.1 27.0 -0.5 13 15.1 W 11 22 6 12 1011.6 1011.5 0.0
30/03:30pm 30.5 25.7 0.0 14 14.7 W 15 22 8 12 1011.8 1011.7 0.0
30/03:00pm 30.5 26.7 1.9 16 14.2 W 11 22 6 12 1012.1 1012.0 0.0
30/02:30pm 30.0 25.5 -0.4 14 14.5 W 13 22 7 12 1012.5 1012.4 0.0
30/02:00pm 30.2 25.6 -1.2 13 14.8 WSW 13 22 7 12 1013.0 1012.8 0.0
30/01:30pm 29.6 24.0 -2.8 12 14.8 WSW 17 24 9 13 1013.3 1013.1 0.0
30/01:00pm 28.9 24.7 1.4 17 13.4 W 13 24 7 13 1013.7 1013.5 0.0
30/12:30pm 26.8 24.5 7.3 29 10.4 WSW 9 17 5 9 1014.3 1014.2 0.0
30/12:00pm 25.6 23.2 8.6 34 9.2 E 11 17 6 9 1014.7 1014.6 0.0
30/11:30am 24.8 23.1 9.9 39 8.2 E 9 13 5 7 1015.4 1015.3 0.0
30/11:00am 22.2 20.7 10.4 47 6.5 SSW 9 15 5 8 1016.0 1015.9 0.0
30/10:30am 21.4 20.0 10.9 51 5.8 S 9 17 5 9 1016.2 1016.1 0.0
30/10:00am 19.9 18.3 11.4 58 4.7 SSE 11 17 6 9 1016.2 1016.1 0.0
30/09:30am 18.3 17.4 11.4 64 3.8 S 7 13 4 7 1016.2 1016.1 0.0
30/09:00am 16.6 15.9 11.3 71 2.9 S 6 9 3 5 1016.5 1016.4 0.0
30/08:30am 15.9 14.4 11.9 77 2.2 SSE 11 15 6 8 1016.6 1016.5 0.0
30/08:00am 14.7 15.1 11.3 80 1.8 CALM 0 0 0 0 1016.5 1016.4 0.0
30/07:30am 11.7 10.6 9.9 89 0.9 SSW 6 6 3 3 1016.3 1016.2 0.0
30/07:00am 9.0 7.5 8.5 97 0.2 SSW 6 7 3 4 1016.1 1016.0 0.0
30/06:30am 5.9 3.1 5.2 95 0.3 SW 9 13 5 7 1016.4 1016.3 0.0
30/06:00am 5.4 3.0 4.5 94 0.4 SW 6 7 3 4 1015.8 1015.7 0.0
30/05:30am 6.6 4.3 5.9 95 0.3 SW 7 11 4 6 1015.4 1015.3 0.0
30/05:00am 6.4 5.4 5.5 94 0.4 CALM 0 0 0 0 1015.4 1015.3 0.0
30/04:30am 6.6 5.6 5.4 92 0.5 CALM 0 6 0 3 1015.4 1015.3 0.0
30/04:00am 7.8 5.3 6.6 92 0.6 WSW 9 9 5 5 1015.7 1015.6 0.0
30/03:30am 7.9 5.4 6.4 90 0.7 WSW 9 11 5 6 1015.5 1015.4 0.0
30/03:00am 8.7 6.6 6.8 88 0.9 WSW 7 9 4 5 1015.7 1015.6 0.0
30/02:30am 9.7 7.4 7.3 85 1.1 WSW 9 9 5 5 1016.0 1015.9 0.0
30/02:00am 10.5 10.1 8.3 86 1.1 CALM 0 0 0 0 1016.5 1016.4 0.0
30/01:30am 11.4 11.0 8.3 81 1.5 CALM 0 0 0 0 1017.0 1016.9 0.0
30/01:00am 12.6 11.4 9.6 82 1.5 SW 6 9 3 5 1017.0 1016.9 0.0
30/12:30am 13.5 12.5 10.9 84 1.4 SW 7 9 4 5 1017.2 1017.1 0.0
30/12:00am 13.4 12.0 10.8 84 1.4 SW 9 13 5 7 1017.5 1017.4 0.0
 
Date/Time
CDT
Temp
°C
App
Temp
°C
Dew
Point
Rel
Hum
%
Delta-T
°C
Wind Press
QNH
hPa
Press
MSL
hPa
Rain
since 9 am
mm
Dir
 
Spd
km/h
Gust
km/h
Spd
kts
Gust
kts
29/11:30pm 13.5 11.3 10.7 83 1.5 SW 13 15 7 8 1017.7 1017.6 0.0
29/11:00pm 14.2 12.8 10.8 80 1.8 SSW 9 15 5 8 1017.8 1017.7 0.0
29/10:30pm 14.9 13.2 11.3 79 1.9 S 11 15 6 8 1017.7 1017.6 0.0
29/10:00pm 15.6 13.8 12.0 79 2.0 S 13 19 7 10 1017.4 1017.3 0.0
29/09:30pm 16.0 13.5 12.4 79 2.0 S 17 24 9 13 1017.3 1017.2 0.0
29/09:00pm 17.0 14.1 12.9 77 2.3 S 20 28 11 15 1016.9 1016.8 0.0
29/08:30pm 17.5 14.8 13.0 75 2.5 SSW 19 28 10 15 1016.8 1016.7 0.0

Other Formats:

Comma delimited format used in spreadsheet applications
http://www.bom.gov.au/fwo/IDS60801/IDS60801.95670.axf

JavaScript Object Notation format (JSON) in row-major order
http://www.bom.gov.au/fwo/IDS60801/IDS60801.95670.json